sensor_id;sensor_type;location;lat;lon;timestamp;pressure;altitude;pressure_sealevel;temperature;humidity
72558;BME280;60583;50.094;8.748;2023-04-08T00:02:19;100863.13;;;8.36;87.83
72558;BME280;60583;50.094;8.748;2023-04-08T00:04:45;100904.38;;;8.54;87.39
72558;BME280;60583;50.094;8.748;2023-04-08T00:07:11;100922.28;;;8.68;87.75
72558;BME280;60583;50.094;8.748;2023-04-08T00:09:36;100906.34;;;8.60;87.27
72558;BME280;60583;50.094;8.748;2023-04-08T00:12:03;100902.97;;;8.66;87.65
72558;BME280;60583;50.094;8.748;2023-04-08T00:14:28;100917.94;;;8.67;87.86
72558;BME280;60583;50.094;8.748;2023-04-08T00:16:54;100917.59;;;8.70;86.92
72558;BME280;60583;50.094;8.748;2023-04-08T00:19:19;100913.28;;;8.69;86.84
72558;BME280;60583;50.094;8.748;2023-04-08T00:21:45;100926.56;;;8.69;86.48
72558;BME280;60583;50.094;8.748;2023-04-08T00:24:11;100907.53;;;8.58;86.67
72558;BME280;60583;50.094;8.748;2023-04-08T00:26:37;100918.94;;;8.66;86.55
72558;BME280;60583;50.094;8.748;2023-04-08T00:29:02;100934.19;;;8.72;86.09
72558;BME280;60583;50.094;8.748;2023-04-08T00:31:28;100913.16;;;8.63;86.22
72558;BME280;60583;50.094;8.748;2023-04-08T00:33:53;100912.31;;;8.62;86.98
72558;BME280;60583;50.094;8.748;2023-04-08T00:36:19;100929.09;;;8.63;86.69
72558;BME280;60583;50.094;8.748;2023-04-08T00:38:44;100921.50;;;8.52;86.97
72558;BME280;60583;50.094;8.748;2023-04-08T00:41:10;100928.31;;;8.46;87.37
72558;BME280;60583;50.094;8.748;2023-04-08T00:43:35;100923.00;;;8.46;87.51
72558;BME280;60583;50.094;8.748;2023-04-08T00:46:00;100892.34;;;8.27;87.23
72558;BME280;60583;50.094;8.748;2023-04-08T00:48:26;100934.97;;;8.50;87.12
72558;BME280;60583;50.094;8.748;2023-04-08T00:50:51;100924.03;;;8.45;86.89
72558;BME280;60583;50.094;8.748;2023-04-08T00:53:18;100928.38;;;8.38;86.94
72558;BME280;60583;50.094;8.748;2023-04-08T00:55:44;100935.97;;;8.41;86.54
72558;BME280;60583;50.094;8.748;2023-04-08T00:58:10;100921.41;;;8.29;86.79
72558;BME280;60583;50.094;8.748;2023-04-08T01:00:39;100902.47;;;8.16;87.20
72558;BME280;60583;50.094;8.748;2023-04-08T01:03:10;100933.19;;;8.26;86.92
72558;BME280;60583;50.094;8.748;2023-04-08T01:05:54;100875.84;;;7.85;87.78
72558;BME280;60583;50.094;8.748;2023-04-08T01:08:21;100907.84;;;7.92;88.04
72558;BME280;60583;50.094;8.748;2023-04-08T01:10:52;100904.03;;;7.78;88.53
72558;BME280;60583;50.094;8.748;2023-04-08T01:13:20;100929.75;;;7.86;88.59
72558;BME280;60583;50.094;8.748;2023-04-08T01:15:48;100913.53;;;7.72;89.40
72558;BME280;60583;50.094;8.748;2023-04-08T01:18:14;100898.59;;;7.47;89.71
72558;BME280;60583;50.094;8.748;2023-04-08T01:20:42;100931.09;;;7.65;89.62
72558;BME280;60583;50.094;8.748;2023-04-08T01:23:42;100938.41;;;7.71;89.32
72558;BME280;60583;50.094;8.748;2023-04-08T01:26:12;100932.44;;;7.61;90.12
72558;BME280;60583;50.094;8.748;2023-04-08T01:28:46;100909.03;;;7.41;90.06
72558;BME280;60583;50.094;8.748;2023-04-08T01:31:14;100927.13;;;7.37;89.75
72558;BME280;60583;50.094;8.748;2023-04-08T01:33:40;100916.81;;;7.26;89.72
72558;BME280;60583;50.094;8.748;2023-04-08T01:36:06;100925.63;;;7.35;89.83
72558;BME280;60583;50.094;8.748;2023-04-08T01:38:33;100926.75;;;7.16;90.47
72558;BME280;60583;50.094;8.748;2023-04-08T01:40:59;100931.69;;;7.03;91.51
72558;BME280;60583;50.094;8.748;2023-04-08T01:43:25;100882.22;;;6.70;91.79
72558;BME280;60583;50.094;8.748;2023-04-08T01:45:53;100903.81;;;6.83;91.61
72558;BME280;60583;50.094;8.748;2023-04-08T01:48:23;100928.53;;;6.91;91.70
72558;BME280;60583;50.094;8.748;2023-04-08T01:50:48;100940.31;;;7.05;91.48
72558;BME280;60583;50.094;8.748;2023-04-08T01:53:15;100932.00;;;6.92;91.11
72558;BME280;60583;50.094;8.748;2023-04-08T01:55:42;100897.31;;;6.69;91.24
72558;BME280;60583;50.094;8.748;2023-04-08T01:58:10;100909.41;;;6.72;91.77
72558;BME280;60583;50.094;8.748;2023-04-08T02:00:37;100937.41;;;6.74;92.28
72558;BME280;60583;50.094;8.748;2023-04-08T02:03:05;100925.28;;;6.64;91.97
72558;BME280;60583;50.094;8.748;2023-04-08T02:05:32;100937.25;;;6.76;92.42
72558;BME280;60583;50.094;8.748;2023-04-08T02:07:58;100904.56;;;6.59;91.57
72558;BME280;60583;50.094;8.748;2023-04-08T02:10:24;100893.59;;;6.46;91.87
72558;BME280;60583;50.094;8.748;2023-04-08T02:12:49;100949.81;;;6.74;91.88
72558;BME280;60583;50.094;8.748;2023-04-08T02:15:15;100899.81;;;6.37;92.15
72558;BME280;60583;50.094;8.748;2023-04-08T02:18:12;100929.03;;;6.53;92.02
72558;BME280;60583;50.094;8.748;2023-04-08T02:20:47;100928.19;;;6.53;92.04
72558;BME280;60583;50.094;8.748;2023-04-08T02:34:16;100933.81;;;6.16;91.89
72558;BME280;60583;50.094;8.748;2023-04-08T02:36:42;100955.50;;;6.19;91.72
72558;BME280;60583;50.094;8.748;2023-04-08T02:39:10;100958.94;;;6.12;92.29
72558;BME280;60583;50.094;8.748;2023-04-08T02:41:35;100956.81;;;6.15;92.35
72558;BME280;60583;50.094;8.748;2023-04-08T02:44:01;100948.63;;;6.01;91.87
72558;BME280;60583;50.094;8.748;2023-04-08T02:46:26;100963.72;;;6.08;92.14
72558;BME280;60583;50.094;8.748;2023-04-08T02:48:52;100959.50;;;5.98;91.89
72558;BME280;60583;50.094;8.748;2023-04-08T02:51:17;100957.38;;;6.01;92.11
72558;BME280;60583;50.094;8.748;2023-04-08T02:53:43;100953.69;;;5.94;92.30
72558;BME280;60583;50.094;8.748;2023-04-08T02:56:09;100961.97;;;5.99;91.32
72558;BME280;60583;50.094;8.748;2023-04-08T02:58:36;100946.28;;;5.80;93.66
72558;BME280;60583;50.094;8.748;2023-04-08T03:01:01;100917.75;;;5.66;92.59
72558;BME280;60583;50.094;8.748;2023-04-08T03:03:27;100958.09;;;5.86;93.12
72558;BME280;60583;50.094;8.748;2023-04-08T03:05:54;100967.44;;;5.80;91.99
72558;BME280;60583;50.094;8.748;2023-04-08T03:08:21;100953.31;;;5.71;92.12
72558;BME280;60583;50.094;8.748;2023-04-08T03:10:47;100975.78;;;5.85;92.12
72558;BME280;60583;50.094;8.748;2023-04-08T03:13:14;100966.41;;;5.73;93.69
72558;BME280;60583;50.094;8.748;2023-04-08T03:15:40;100972.59;;;5.64;94.46
72558;BME280;60583;50.094;8.748;2023-04-08T03:18:05;100957.66;;;5.55;95.67
72558;BME280;60583;50.094;8.748;2023-04-08T03:20:31;100971.31;;;5.68;96.71
72558;BME280;60583;50.094;8.748;2023-04-08T03:22:56;100977.66;;;5.57;94.12
72558;BME280;60583;50.094;8.748;2023-04-08T03:25:22;100983.63;;;5.59;93.55
72558;BME280;60583;50.094;8.748;2023-04-08T03:27:47;100973.59;;;5.45;93.61
72558;BME280;60583;50.094;8.748;2023-04-08T03:30:13;100970.56;;;5.58;95.54
72558;BME280;60583;50.094;8.748;2023-04-08T03:32:38;100965.19;;;5.50;96.96
72558;BME280;60583;50.094;8.748;2023-04-08T03:35:05;100981.16;;;5.58;96.69
72558;BME280;60583;50.094;8.748;2023-04-08T03:37:30;100923.94;;;5.22;97.05
72558;BME280;60583;50.094;8.748;2023-04-08T03:39:56;100986.19;;;5.69;96.35
72558;BME280;60583;50.094;8.748;2023-04-08T03:42:22;100986.91;;;5.53;95.84
72558;BME280;60583;50.094;8.748;2023-04-08T03:44:47;100969.34;;;5.52;95.30
72558;BME280;60583;50.094;8.748;2023-04-08T03:47:13;100959.38;;;5.46;95.12
72558;BME280;60583;50.094;8.748;2023-04-08T03:49:38;100956.28;;;5.51;95.04
72558;BME280;60583;50.094;8.748;2023-04-08T03:52:04;100988.09;;;5.59;95.41
72558;BME280;60583;50.094;8.748;2023-04-08T03:54:30;100979.72;;;5.46;95.84
72558;BME280;60583;50.094;8.748;2023-04-08T03:56:55;100994.75;;;5.63;95.33
72558;BME280;60583;50.094;8.748;2023-04-08T03:59:21;100991.44;;;5.61;95.18
72558;BME280;60583;50.094;8.748;2023-04-08T04:01:47;100977.06;;;5.63;94.83
72558;BME280;60583;50.094;8.748;2023-04-08T04:04:12;100975.22;;;5.64;94.41
72558;BME280;60583;50.094;8.748;2023-04-08T04:06:38;100965.28;;;5.58;94.53
72558;BME280;60583;50.094;8.748;2023-04-08T04:09:03;100956.03;;;5.62;93.38
72558;BME280;60583;50.094;8.748;2023-04-08T04:11:29;100961.72;;;5.67;93.27
72558;BME280;60583;50.094;8.748;2023-04-08T04:13:54;100999.31;;;5.88;93.28
72558;BME280;60583;50.094;8.748;2023-04-08T04:16:20;100990.34;;;5.71;93.05
72558;BME280;60583;50.094;8.748;2023-04-08T04:18:45;100980.31;;;5.57;93.17
72558;BME280;60583;50.094;8.748;2023-04-08T04:21:11;100982.41;;;5.54;93.87
72558;BME280;60583;50.094;8.748;2023-04-08T04:23:36;101006.31;;;5.62;93.72
72558;BME280;60583;50.094;8.748;2023-04-08T04:26:07;100960.50;;;5.44;93.48
72558;BME280;60583;50.094;8.748;2023-04-08T04:28:32;101008.94;;;5.62;93.40
72558;BME280;60583;50.094;8.748;2023-04-08T04:30:58;100988.41;;;5.56;93.59
72558;BME280;60583;50.094;8.748;2023-04-08T04:33:23;100950.16;;;5.33;92.85
72558;BME280;60583;50.094;8.748;2023-04-08T04:35:49;100974.72;;;5.43;92.54
72558;BME280;60583;50.094;8.748;2023-04-08T04:38:14;101001.31;;;5.59;92.70
72558;BME280;60583;50.094;8.748;2023-04-08T04:40:40;101002.78;;;5.53;92.04
72558;BME280;60583;50.094;8.748;2023-04-08T04:43:06;101001.56;;;5.48;92.51
72558;BME280;60583;50.094;8.748;2023-04-08T04:45:31;101001.63;;;5.56;91.97
72558;BME280;60583;50.094;8.748;2023-04-08T04:47:57;100996.94;;;5.50;91.46
72558;BME280;60583;50.094;8.748;2023-04-08T04:50:22;100967.09;;;5.40;91.17
72558;BME280;60583;50.094;8.748;2023-04-08T04:52:48;100990.34;;;5.54;91.17
72558;BME280;60583;50.094;8.748;2023-04-08T04:55:13;100999.66;;;5.58;91.32
72558;BME280;60583;50.094;8.748;2023-04-08T04:57:40;100997.78;;;5.50;91.94
72558;BME280;60583;50.094;8.748;2023-04-08T05:00:06;101016.56;;;5.47;92.08
72558;BME280;60583;50.094;8.748;2023-04-08T05:02:32;101006.22;;;5.36;91.98
72558;BME280;60583;50.094;8.748;2023-04-08T05:04:58;100993.06;;;5.27;92.13
72558;BME280;60583;50.094;8.748;2023-04-08T05:07:23;101017.13;;;5.51;91.82
72558;BME280;60583;50.094;8.748;2023-04-08T05:09:49;101025.81;;;5.61;91.14
72558;BME280;60583;50.094;8.748;2023-04-08T05:12:15;101016.28;;;5.33;90.91
72558;BME280;60583;50.094;8.748;2023-04-08T05:14:40;101013.38;;;5.08;91.58
72558;BME280;60583;50.094;8.748;2023-04-08T05:17:06;101027.38;;;5.09;92.85
72558;BME280;60583;50.094;8.748;2023-04-08T05:19:32;100987.94;;;4.80;92.75
72558;BME280;60583;50.094;8.748;2023-04-08T05:21:57;101039.81;;;5.08;93.04
72558;BME280;60583;50.094;8.748;2023-04-08T05:24:23;100967.19;;;4.58;93.15
72558;BME280;60583;50.094;8.748;2023-04-08T05:26:48;101043.97;;;5.01;93.22
72558;BME280;60583;50.094;8.748;2023-04-08T05:29:17;101037.44;;;5.05;93.47
72558;BME280;60583;50.094;8.748;2023-04-08T05:31:43;101045.47;;;5.13;92.81
72558;BME280;60583;50.094;8.748;2023-04-08T05:34:09;101026.19;;;5.03;92.59
72558;BME280;60583;50.094;8.748;2023-04-08T05:36:36;101054.75;;;5.18;92.57
72558;BME280;60583;50.094;8.748;2023-04-08T05:39:01;101038.34;;;5.14;92.20
72558;BME280;60583;50.094;8.748;2023-04-08T05:41:27;101052.06;;;5.27;91.96
72558;BME280;60583;50.094;8.748;2023-04-08T05:43:52;101044.88;;;5.20;91.86
72558;BME280;60583;50.094;8.748;2023-04-08T05:46:18;101009.34;;;5.04;91.42
72558;BME280;60583;50.094;8.748;2023-04-08T05:48:43;101022.38;;;5.15;90.80
72558;BME280;60583;50.094;8.748;2023-04-08T05:51:15;101047.72;;;5.36;91.17
72558;BME280;60583;50.094;8.748;2023-04-08T05:53:43;101039.69;;;5.28;91.19
72558;BME280;60583;50.094;8.748;2023-04-08T05:56:09;101061.00;;;5.44;90.46
72558;BME280;60583;50.094;8.748;2023-04-08T05:58:34;101035.81;;;5.22;90.00
72558;BME280;60583;50.094;8.748;2023-04-08T06:01:00;101066.91;;;5.38;90.40
72558;BME280;60583;50.094;8.748;2023-04-08T06:03:25;101048.34;;;5.20;90.23
72558;BME280;60583;50.094;8.748;2023-04-08T06:05:51;101079.44;;;5.36;90.07
72558;BME280;60583;50.094;8.748;2023-04-08T06:08:16;101073.75;;;5.31;91.03
72558;BME280;60583;50.094;8.748;2023-04-08T06:10:51;101076.41;;;5.31;90.97
72558;BME280;60583;50.094;8.748;2023-04-08T06:13:16;101079.72;;;5.33;90.34
72558;BME280;60583;50.094;8.748;2023-04-08T06:15:42;101084.00;;;5.43;90.06
72558;BME280;60583;50.094;8.748;2023-04-08T06:18:08;101088.28;;;5.44;90.06
72558;BME280;60583;50.094;8.748;2023-04-08T06:20:34;101079.59;;;5.52;89.51
72558;BME280;60583;50.094;8.748;2023-04-08T06:23:00;101080.53;;;5.60;88.96
72558;BME280;60583;50.094;8.748;2023-04-08T06:25:25;101056.34;;;5.55;88.27
72558;BME280;60583;50.094;8.748;2023-04-08T06:27:51;101082.19;;;5.79;88.32
72558;BME280;60583;50.094;8.748;2023-04-08T06:30:17;101091.09;;;5.88;88.54
72558;BME280;60583;50.094;8.748;2023-04-08T06:32:42;101083.97;;;5.88;88.06
72558;BME280;60583;50.094;8.748;2023-04-08T06:35:08;101097.44;;;5.95;87.74
72558;BME280;60583;50.094;8.748;2023-04-08T06:37:33;101085.78;;;5.88;87.90
72558;BME280;60583;50.094;8.748;2023-04-08T06:40:03;101069.19;;;5.68;87.89
72558;BME280;60583;50.094;8.748;2023-04-08T06:42:29;101089.75;;;5.74;87.79
72558;BME280;60583;50.094;8.748;2023-04-08T06:44:55;101084.16;;;5.77;87.93
72558;BME280;60583;50.094;8.748;2023-04-08T06:47:20;101107.13;;;5.86;87.73
72558;BME280;60583;50.094;8.748;2023-04-08T06:49:46;101094.88;;;5.85;87.28
72558;BME280;60583;50.094;8.748;2023-04-08T06:52:12;101121.72;;;6.08;87.13
72558;BME280;60583;50.094;8.748;2023-04-08T06:54:37;101085.94;;;6.04;86.77
72558;BME280;60583;50.094;8.748;2023-04-08T06:57:03;101076.72;;;6.08;86.27
72558;BME280;60583;50.094;8.748;2023-04-08T06:59:28;101124.81;;;6.38;86.25
72558;BME280;60583;50.094;8.748;2023-04-08T07:01:54;101076.53;;;6.27;86.67
72558;BME280;60583;50.094;8.748;2023-04-08T07:04:20;101086.41;;;6.42;86.07
72558;BME280;60583;50.094;8.748;2023-04-08T07:06:45;101127.03;;;6.69;86.09
72558;BME280;60583;50.094;8.748;2023-04-08T07:09:11;101117.09;;;6.71;85.23
72558;BME280;60583;50.094;8.748;2023-04-08T07:11:36;101124.50;;;6.93;84.98
72558;BME280;60583;50.094;8.748;2023-04-08T07:14:02;101117.63;;;7.08;84.88
72558;BME280;60583;50.094;8.748;2023-04-08T07:16:27;101119.03;;;7.20;83.73
72558;BME280;60583;50.094;8.748;2023-04-08T07:18:53;101128.75;;;7.37;83.36
72558;BME280;60583;50.094;8.748;2023-04-08T07:21:18;101099.97;;;7.17;83.03
72558;BME280;60583;50.094;8.748;2023-04-08T07:23:44;101133.34;;;7.35;81.17
72558;BME280;60583;50.094;8.748;2023-04-08T07:26:09;101131.78;;;7.58;81.40
72558;BME280;60583;50.094;8.748;2023-04-08T07:28:35;101127.88;;;7.79;80.92
72558;BME280;60583;50.094;8.748;2023-04-08T07:31:09;101131.72;;;7.92;80.95
72558;BME280;60583;50.094;8.748;2023-04-08T07:33:34;101129.22;;;7.99;79.73
72558;BME280;60583;50.094;8.748;2023-04-08T07:36:00;101122.63;;;8.03;78.88
72558;BME280;60583;50.094;8.748;2023-04-08T07:38:26;101138.41;;;8.12;78.46
72558;BME280;60583;50.094;8.748;2023-04-08T07:40:52;101101.38;;;8.03;78.35
72558;BME280;60583;50.094;8.748;2023-04-08T07:43:17;101140.28;;;8.28;77.33
72558;BME280;60583;50.094;8.748;2023-04-08T07:45:43;101125.28;;;8.19;76.74
72558;BME280;60583;50.094;8.748;2023-04-08T07:48:08;101139.91;;;8.23;77.03
72558;BME280;60583;50.094;8.748;2023-04-08T07:50:35;101137.41;;;8.05;76.16
72558;BME280;60583;50.094;8.748;2023-04-08T07:53:02;101142.53;;;8.07;75.88
72558;BME280;60583;50.094;8.748;2023-04-08T07:55:27;101136.91;;;8.18;76.77
72558;BME280;60583;50.094;8.748;2023-04-08T07:57:57;101134.91;;;8.20;76.45
72558;BME280;60583;50.094;8.748;2023-04-08T08:00:22;101153.56;;;8.28;77.27
72558;BME280;60583;50.094;8.748;2023-04-08T08:02:48;101157.34;;;8.25;77.18
72558;BME280;60583;50.094;8.748;2023-04-08T08:05:14;101162.81;;;8.24;77.89
72558;BME280;60583;50.094;8.748;2023-04-08T08:07:39;101163.78;;;8.15;76.33
72558;BME280;60583;50.094;8.748;2023-04-08T08:10:05;101146.50;;;7.95;76.21
72558;BME280;60583;50.094;8.748;2023-04-08T08:12:31;101170.63;;;8.17;77.54
72558;BME280;60583;50.094;8.748;2023-04-08T08:14:56;101145.19;;;8.07;75.18
72558;BME280;60583;50.094;8.748;2023-04-08T08:17:23;101169.44;;;8.20;77.00
72558;BME280;60583;50.094;8.748;2023-04-08T08:19:49;101166.84;;;8.28;77.12
72558;BME280;60583;50.094;8.748;2023-04-08T08:22:15;101158.50;;;8.23;76.27
72558;BME280;60583;50.094;8.748;2023-04-08T08:24:40;101155.84;;;8.23;77.22
72558;BME280;60583;50.094;8.748;2023-04-08T08:27:09;101180.13;;;8.36;77.73
72558;BME280;60583;50.094;8.748;2023-04-08T08:29:35;101180.44;;;8.41;75.35
72558;BME280;60583;50.094;8.748;2023-04-08T08:32:01;101185.44;;;8.52;74.01
72558;BME280;60583;50.094;8.748;2023-04-08T08:34:28;101169.69;;;8.43;72.57
72558;BME280;60583;50.094;8.748;2023-04-08T08:36:53;101184.47;;;8.45;70.87
72558;BME280;60583;50.094;8.748;2023-04-08T08:39:20;101178.81;;;8.40;70.50
72558;BME280;60583;50.094;8.748;2023-04-08T08:41:45;101196.56;;;8.40;68.26
72558;BME280;60583;50.094;8.748;2023-04-08T08:44:11;101205.69;;;8.37;68.24
72558;BME280;60583;50.094;8.748;2023-04-08T08:46:44;101178.16;;;8.38;69.12
72558;BME280;60583;50.094;8.748;2023-04-08T08:49:11;101190.09;;;8.66;69.76
72558;BME280;60583;50.094;8.748;2023-04-08T08:51:39;101190.75;;;8.76;70.12
72558;BME280;60583;50.094;8.748;2023-04-08T08:54:05;101207.38;;;8.94;70.80
72558;BME280;60583;50.094;8.748;2023-04-08T08:56:32;101169.16;;;8.71;71.30
72558;BME280;60583;50.094;8.748;2023-04-08T08:58:58;101185.13;;;8.87;69.55
72558;BME280;60583;50.094;8.748;2023-04-08T09:01:31;101195.41;;;8.82;69.31
72558;BME280;60583;50.094;8.748;2023-04-08T09:06:37;101188.44;;;8.65;70.90
72558;BME280;60583;50.094;8.748;2023-04-08T09:09:03;101215.03;;;8.89;70.24
72558;BME280;60583;50.094;8.748;2023-04-08T09:11:36;101204.56;;;8.88;69.34
72558;BME280;60583;50.094;8.748;2023-04-08T09:14:02;101211.38;;;8.98;69.46
72558;BME280;60583;50.094;8.748;2023-04-08T09:16:29;101215.69;;;8.91;69.66
72558;BME280;60583;50.094;8.748;2023-04-08T09:19:07;101210.03;;;8.94;68.70
72558;BME280;60583;50.094;8.748;2023-04-08T09:21:33;101181.47;;;8.80;68.46
72558;BME280;60583;50.094;8.748;2023-04-08T09:23:59;101187.44;;;8.90;68.69
72558;BME280;60583;50.094;8.748;2023-04-08T09:26:25;101208.03;;;8.96;69.51
72558;BME280;60583;50.094;8.748;2023-04-08T09:29:07;101220.66;;;9.11;68.26
72558;BME280;60583;50.094;8.748;2023-04-08T09:31:37;101205.38;;;9.05;67.99
72558;BME280;60583;50.094;8.748;2023-04-08T09:34:12;101192.91;;;9.13;68.90
72558;BME280;60583;50.094;8.748;2023-04-08T09:36:39;101211.97;;;9.41;67.39
72558;BME280;60583;50.094;8.748;2023-04-08T09:39:05;101212.44;;;9.44;67.14
72558;BME280;60583;50.094;8.748;2023-04-08T09:41:36;101213.75;;;9.56;65.79
72558;BME280;60583;50.094;8.748;2023-04-08T09:44:03;101213.78;;;9.48;62.63
72558;BME280;60583;50.094;8.748;2023-04-08T09:46:43;101178.72;;;9.29;63.90
72558;BME280;60583;50.094;8.748;2023-04-08T09:49:16;101226.53;;;9.61;63.11
72558;BME280;60583;50.094;8.748;2023-04-08T09:52:06;101220.03;;;9.72;60.81
72558;BME280;60583;50.094;8.748;2023-04-08T09:54:51;101221.03;;;10.01;61.86
72558;BME280;60583;50.094;8.748;2023-04-08T09:57:24;101225.00;;;10.13;61.80
72558;BME280;60583;50.094;8.748;2023-04-08T10:00:01;101216.25;;;10.27;62.49
72558;BME280;60583;50.094;8.748;2023-04-08T10:02:36;101209.03;;;10.05;61.62
72558;BME280;60583;50.094;8.748;2023-04-08T10:05:06;101217.19;;;10.12;63.17
72558;BME280;60583;50.094;8.748;2023-04-08T10:07:33;101218.72;;;9.98;62.54
72558;BME280;60583;50.094;8.748;2023-04-08T10:09:59;101187.69;;;9.75;62.86
72558;BME280;60583;50.094;8.748;2023-04-08T10:12:26;101208.03;;;10.06;62.99
72558;BME280;60583;50.094;8.748;2023-04-08T10:23:07;101186.38;;;10.55;61.32
72558;BME280;60583;50.094;8.748;2023-04-08T10:25:34;101204.91;;;10.94;60.87
72558;BME280;60583;50.094;8.748;2023-04-08T10:28:23;101190.41;;;11.84;59.63
72558;BME280;60583;50.094;8.748;2023-04-08T10:30:55;101183.00;;;12.57;58.03
72558;BME280;60583;50.094;8.748;2023-04-08T10:33:24;101201.97;;;12.84;57.47
72558;BME280;60583;50.094;8.748;2023-04-08T10:36:09;101195.31;;;13.01;59.28
72558;BME280;60583;50.094;8.748;2023-04-08T10:38:36;101199.97;;;13.13;56.01
72558;BME280;60583;50.094;8.748;2023-04-08T10:41:02;101205.66;;;13.04;55.60
72558;BME280;60583;50.094;8.748;2023-04-08T10:43:32;101187.94;;;14.25;53.48
72558;BME280;60583;50.094;8.748;2023-04-08T10:45:58;101196.13;;;16.94;47.58
72558;BME280;60583;50.094;8.748;2023-04-08T10:48:24;101172.06;;;17.17;44.37
72558;BME280;60583;50.094;8.748;2023-04-08T10:51:00;101207.59;;;16.21;48.36
72558;BME280;60583;50.094;8.748;2023-04-08T10:53:34;101198.97;;;15.35;48.89
72558;BME280;60583;50.094;8.748;2023-04-08T10:56:08;101187.19;;;15.29;49.84
72558;BME280;60583;50.094;8.748;2023-04-08T10:58:35;101209.72;;;14.56;50.70
72558;BME280;60583;50.094;8.748;2023-04-08T11:01:12;101210.13;;;14.47;51.51
72558;BME280;60583;50.094;8.748;2023-04-08T11:03:37;101208.84;;;14.43;52.49
72558;BME280;60583;50.094;8.748;2023-04-08T11:06:03;101201.50;;;14.11;51.20
72558;BME280;60583;50.094;8.748;2023-04-08T11:08:29;101195.56;;;14.22;51.61
72558;BME280;60583;50.094;8.748;2023-04-08T11:10:57;101201.22;;;14.40;51.00
72558;BME280;60583;50.094;8.748;2023-04-08T11:13:23;101196.41;;;13.75;53.42
72558;BME280;60583;50.094;8.748;2023-04-08T11:15:49;101193.78;;;13.88;52.70
72558;BME280;60583;50.094;8.748;2023-04-08T11:18:15;101194.53;;;14.23;52.35
72558;BME280;60583;50.094;8.748;2023-04-08T11:20:43;101196.19;;;13.70;53.93
72558;BME280;60583;50.094;8.748;2023-04-08T11:23:15;101161.63;;;13.40;54.05
72558;BME280;60583;50.094;8.748;2023-04-08T11:25:45;101135.00;;;12.77;54.94
72558;BME280;60583;50.094;8.748;2023-04-08T11:28:11;101180.44;;;13.19;55.80
72558;BME280;60583;50.094;8.748;2023-04-08T11:30:39;101189.78;;;13.30;55.48
72558;BME280;60583;50.094;8.748;2023-04-08T11:33:06;101168.47;;;13.15;56.44
72558;BME280;60583;50.094;8.748;2023-04-08T11:35:32;101174.19;;;12.85;57.08
72558;BME280;60583;50.094;8.748;2023-04-08T11:37:58;101203.63;;;13.33;56.96
72558;BME280;60583;50.094;8.748;2023-04-08T11:40:23;101195.63;;;13.40;56.16
72558;BME280;60583;50.094;8.748;2023-04-08T11:42:51;101196.31;;;13.21;56.49
72558;BME280;60583;50.094;8.748;2023-04-08T11:45:18;101199.91;;;13.07;57.94
72558;BME280;60583;50.094;8.748;2023-04-08T11:47:44;101187.47;;;12.99;58.46
72558;BME280;60583;50.094;8.748;2023-04-08T11:50:11;101186.97;;;12.89;58.34
72558;BME280;60583;50.094;8.748;2023-04-08T11:52:48;101187.19;;;13.09;58.19
72558;BME280;60583;50.094;8.748;2023-04-08T11:57:48;101190.94;;;14.96;53.39
72558;BME280;60583;50.094;8.748;2023-04-08T12:00:13;101180.75;;;16.39;49.78
72558;BME280;60583;50.094;8.748;2023-04-08T12:02:39;101160.53;;;15.21;52.23
72558;BME280;60583;50.094;8.748;2023-04-08T12:05:05;101180.13;;;15.55;51.61
72558;BME280;60583;50.094;8.748;2023-04-08T12:07:31;101117.41;;;17.65;46.63
72558;BME280;60583;50.094;8.748;2023-04-08T12:09:57;101168.31;;;18.69;44.86
72558;BME280;60583;50.094;8.748;2023-04-08T12:12:22;101191.41;;;18.53;45.36
72558;BME280;60583;50.094;8.748;2023-04-08T12:14:48;101193.31;;;18.64;44.16
72558;BME280;60583;50.094;8.748;2023-04-08T12:17:14;101188.50;;;18.66;43.43
72558;BME280;60583;50.094;8.748;2023-04-08T12:19:39;101182.13;;;18.49;43.28
72558;BME280;60583;50.094;8.748;2023-04-08T12:22:05;101167.97;;;18.88;42.84
72558;BME280;60583;50.094;8.748;2023-04-08T12:24:31;101178.19;;;17.49;46.56
72558;BME280;60583;50.094;8.748;2023-04-08T12:26:56;101185.47;;;16.12;48.13
72558;BME280;60583;50.094;8.748;2023-04-08T12:29:22;101188.09;;;16.63;48.07
72558;BME280;60583;50.094;8.748;2023-04-08T12:31:47;101171.56;;;17.45;46.18
72558;BME280;60583;50.094;8.748;2023-04-08T12:34:13;101178.28;;;18.68;43.95
72558;BME280;60583;50.094;8.748;2023-04-08T12:36:38;101183.59;;;18.75;43.26
72558;BME280;60583;50.094;8.748;2023-04-08T12:39:03;101175.69;;;18.32;43.16
72558;BME280;60583;50.094;8.748;2023-04-08T12:41:29;101175.41;;;19.51;41.29
72558;BME280;60583;50.094;8.748;2023-04-08T12:43:54;101164.50;;;20.42;39.30
72558;BME280;60583;50.094;8.748;2023-04-08T12:46:20;101171.25;;;20.89;38.27
72558;BME280;60583;50.094;8.748;2023-04-08T12:48:45;101161.47;;;19.70;40.79
72558;BME280;60583;50.094;8.748;2023-04-08T12:51:13;101168.09;;;19.17;42.01
72558;BME280;60583;50.094;8.748;2023-04-08T12:53:39;101137.91;;;17.54;44.33
72558;BME280;60583;50.094;8.748;2023-04-08T12:56:04;101172.38;;;16.85;47.37
72558;BME280;60583;50.094;8.748;2023-04-08T12:58:30;101177.34;;;16.56;47.71
72558;BME280;60583;50.094;8.748;2023-04-08T13:00:55;101167.81;;;15.85;49.21
72558;BME280;60583;50.094;8.748;2023-04-08T13:03:21;101158.00;;;15.46;50.82
72558;BME280;60583;50.094;8.748;2023-04-08T13:05:46;101159.19;;;15.70;50.64
72558;BME280;60583;50.094;8.748;2023-04-08T13:08:12;101123.16;;;15.77;50.84
72558;BME280;60583;50.094;8.748;2023-04-08T13:10:38;101162.47;;;15.72;52.13
72558;BME280;60583;50.094;8.748;2023-04-08T13:13:04;101175.31;;;15.70;52.10
72558;BME280;60583;50.094;8.748;2023-04-08T13:15:29;101169.63;;;15.27;52.95
72558;BME280;60583;50.094;8.748;2023-04-08T13:17:55;101167.19;;;14.60;54.46
72558;BME280;60583;50.094;8.748;2023-04-08T13:20:20;101173.63;;;14.05;55.89
72558;BME280;60583;50.094;8.748;2023-04-08T13:22:52;101183.19;;;13.32;57.34